Time;durP1;ratioP1;P1;durP2;ratioP2;P2;SDS_P1;SDS_P2;PMS_P1;PMS_P2;Temp;Humidity;BMP_temperature;BMP_pressure;BME280_temperature;BME280_humidity;BME280_pressure;Samples;Min_cycle;Max_cycle;Signal;HPM_P1;HPM_P2
2021/12/13 00:01:59;;;;;;;;;;;;;;;21.11;50.58;101913.94;7282948;19;153114;-51
2021/12/13 00:04:28;;;;;;;;;;;;;;;21.11;50.15;101918.72;7285546;19;152069;-51
2021/12/13 00:06:58;;;;;;;;;;;;;;;21.10;50.96;101923.50;7287116;19;152785;-51
2021/12/13 00:09:27;;;;;;;;;;;;;;;21.09;50.75;101926.59;7294947;19;153565;-51
2021/12/13 00:11:56;;;;;;;;;;;;;;;21.08;50.88;101936.13;7286505;19;152954;-52
2021/12/13 00:14:33;;;;;;;;;;;;;;;21.08;50.95;101933.34;7282865;19;154499;-51
2021/12/13 00:17:03;;;;;;;;;;;;;;;21.06;51.35;101933.63;7282640;19;152676;-51
2021/12/13 00:19:34;;;;;;;;;;;;;;;21.06;50.88;101932.78;7282424;19;152860;-51
2021/12/13 00:22:12;;;;;;;;;;;;;;;21.06;51.16;101935.59;7283326;19;154161;-51
2021/12/13 00:24:42;;;;;;;;;;;;;;;21.04;51.38;101938.69;7283507;19;152107;-52
2021/12/13 00:27:12;;;;;;;;;;;;;;;21.04;51.24;101937.84;7284245;19;153355;-51
2021/12/13 00:29:42;;;;;;;;;;;;;;;21.03;51.41;101933.38;7284620;19;152486;-51
2021/12/13 00:32:12;;;;;;;;;;;;;;;21.01;51.59;101947.72;7293344;19;152023;-51
2021/12/13 00:34:40;;;;;;;;;;;;;;;21.01;51.41;101938.44;7284760;19;153992;-51
2021/12/13 00:37:10;;;;;;;;;;;;;;;20.99;51.21;101944.34;7283298;19;152934;-52
2021/12/13 00:39:40;;;;;;;;;;;;;;;20.97;51.68;101945.75;7286599;19;153579;-51
2021/12/13 00:42:07;;;;;;;;;;;;;;;20.96;51.75;101953.34;7283897;19;152177;-51
2021/12/13 00:44:37;;;;;;;;;;;;;;;20.97;51.25;101948.56;7285065;19;152163;-51
2021/12/13 00:47:06;;;;;;;;;;;;;;;20.92;51.29;101945.78;7285448;19;153575;-51
2021/12/13 00:49:35;;;;;;;;;;;;;;;20.94;51.74;101946.34;7284748;19;154125;-51
2021/12/13 00:52:04;;;;;;;;;;;;;;;20.92;51.79;101935.38;7286562;19;152288;-51
2021/12/13 00:54:34;;;;;;;;;;;;;;;20.91;51.43;101935.66;7293751;19;153361;-51
2021/12/13 00:57:03;;;;;;;;;;;;;;;20.86;51.82;101928.94;7286137;19;151846;-51
2021/12/13 00:59:31;;;;;;;;;;;;;;;20.85;51.94;101938.47;7283126;19;152344;-51
2021/12/13 01:01:59;;;;;;;;;;;;;;;20.81;51.97;101936.53;7283536;19;152592;-51
2021/12/13 01:04:45;;;;;;;;;;;;;;;20.81;51.91;101931.75;7284747;19;152081;-51
2021/12/13 01:07:15;;;;;;;;;;;;;;;20.76;52.00;101928.97;7284606;19;153889;-51
2021/12/13 01:09:45;;;;;;;;;;;;;;;20.76;52.00;101928.13;7284039;19;153659;-51
2021/12/13 01:12:14;;;;;;;;;;;;;;;20.73;51.80;101934.31;7284336;19;151842;-51
2021/12/13 01:14:45;;;;;;;;;;;;;;;20.71;52.37;101923.41;7282117;19;152799;-51
2021/12/13 01:17:18;;;;;;;;;;;;;;;20.69;52.27;101933.22;7287984;19;152342;-52
2021/12/13 01:19:51;;;;;;;;;;;;;;;20.66;52.01;101928.19;7280249;19;153667;-52
2021/12/13 01:27:27;;;;;;;;;;;;;;;20.60;52.29;101918.94;7284949;19;152262;-51
2021/12/13 01:29:54;;;;;;;;;;;;;;;20.58;51.90;101915.56;7285907;19;153980;-51
2021/12/13 01:32:23;;;;;;;;;;;;;;;20.55;51.91;101910.50;7281545;19;151990;-51
2021/12/13 01:34:50;;;;;;;;;;;;;;;20.53;51.81;101911.94;7284185;19;152686;-51
2021/12/13 01:37:17;;;;;;;;;;;;;;;20.50;51.92;101913.34;7289520;19;152624;-51
2021/12/13 01:39:47;;;;;;;;;;;;;;;20.49;51.86;101905.22;7281983;19;153993;-51
2021/12/13 01:42:17;;;;;;;;;;;;;;;20.46;51.83;101900.16;7283032;19;154358;-51
2021/12/13 01:44:46;;;;;;;;;;;;;;;20.42;51.81;101889.50;7283090;19;151998;-51
2021/12/13 01:47:16;;;;;;;;;;;;;;;20.41;52.18;101882.19;7284900;19;152217;-51
2021/12/13 01:49:46;;;;;;;;;;;;;;;20.43;52.16;101890.34;7284795;19;153296;-51
2021/12/13 01:52:16;;;;;;;;;;;;;;;20.38;51.82;101888.41;7280858;19;152457;-51
2021/12/13 01:54:43;;;;;;;;;;;;;;;20.37;51.82;101902.69;7283582;19;153841;-51
2021/12/13 01:59:52;;;;;;;;;;;;;;;20.34;51.98;101911.69;7290553;19;152512;-51
2021/12/13 02:02:20;;;;;;;;;;;;;;;20.30;51.99;101902.16;7281722;19;152250;-51
2021/12/13 02:04:50;;;;;;;;;;;;;;;20.25;52.09;101905.78;7282134;19;152252;-52
2021/12/13 02:07:18;;;;;;;;;;;;;;;20.23;52.42;101907.19;7281594;19;153313;-53
2021/12/13 02:09:45;;;;;;;;;;;;;;;20.22;52.49;101900.72;7282039;19;153236;-52
2021/12/13 02:12:15;;;;;;;;;;;;;;;20.18;52.07;101894.00;7280215;19;152465;-51
2021/12/13 02:14:49;;;;;;;;;;;;;;;20.17;52.23;101897.09;7280481;19;152544;-52
2021/12/13 02:17:19;;;;;;;;;;;;;;;20.14;52.19;101892.03;7279516;19;154157;-51
2021/12/13 02:19:52;;;;;;;;;;;;;;;20.14;52.48;101895.69;7279143;19;151830;-52
2021/12/13 02:22:22;;;;;;;;;;;;;;;20.15;52.80;101902.16;7285581;19;154296;-51
2021/12/13 02:24:49;;;;;;;;;;;;;;;20.13;52.75;101902.41;7282682;19;151773;-51
2021/12/13 02:27:19;;;;;;;;;;;;;;;20.12;52.40;101899.91;7279281;19;153132;-52
2021/12/13 02:29:47;;;;;;;;;;;;;;;20.09;52.91;101909.72;7278568;19;152780;-52
2021/12/13 02:32:13;;;;;;;;;;;;;;;20.06;52.81;101903.84;7279972;19;152338;-52
2021/12/13 02:34:42;;;;;;;;;;;;;;;20.10;52.62;101914.22;7280047;19;152807;-52
2021/12/13 02:37:10;;;;;;;;;;;;;;;20.06;52.69;101910.31;7280629;19;154701;-51
2021/12/13 02:39:40;;;;;;;;;;;;;;;20.05;52.95;101911.41;7279725;19;152058;-51
2021/12/13 02:42:09;;;;;;;;;;;;;;;20.07;53.27;101909.19;7281519;19;153489;-51
2021/12/13 02:44:39;;;;;;;;;;;;;;;20.03;53.19;101904.41;7285609;19;154516;-51
2021/12/13 02:47:14;;;;;;;;;;;;;;;20.01;53.64;101915.06;7278766;19;153404;-51
2021/12/13 02:49:41;;;;;;;;;;;;;;;19.99;53.25;101918.97;7283901;19;154262;-51
2021/12/13 02:52:09;;;;;;;;;;;;;;;19.97;53.70;101907.22;7287188;19;151949;-51
2021/12/13 02:54:39;;;;;;;;;;;;;;;19.97;53.93;101907.22;7287515;19;152809;-51
2021/12/13 02:57:11;;;;;;;;;;;;;;;19.93;53.81;101906.09;7286253;19;152173;-51
2021/12/13 02:59:39;;;;;;;;;;;;;;;19.92;53.83;101917.59;7285737;19;151732;-51
2021/12/13 03:02:07;;;;;;;;;;;;;;;19.92;53.93;101906.38;7285774;19;152867;-52
2021/12/13 03:04:35;;;;;;;;;;;;;;;19.91;53.87;101916.75;7285059;19;153919;-51
2021/12/13 03:07:03;;;;;;;;;;;;;;;19.89;54.22;101915.38;7291606;19;152535;-51
2021/12/13 03:09:31;;;;;;;;;;;;;;;19.87;54.34;101914.78;7286619;19;152604;-51
2021/12/13 03:11:58;;;;;;;;;;;;;;;19.86;54.21;101921.50;7288597;19;152986;-51
2021/12/13 03:14:29;;;;;;;;;;;;;;;19.85;54.29;101928.28;7287155;19;151857;-51
2021/12/13 03:17:00;;;;;;;;;;;;;;;19.84;54.36;101926.56;7285791;19;153612;-51
2021/12/13 03:19:35;;;;;;;;;;;;;;;19.83;54.43;101924.88;7286155;19;151814;-52
2021/12/13 03:22:14;;;;;;;;;;;;;;;19.80;54.60;101919.84;7288179;19;153544;-52
2021/12/13 03:24:44;;;;;;;;;;;;;;;19.80;54.27;101920.69;7286286;19;152179;-51
2021/12/13 03:27:14;;;;;;;;;;;;;;;19.79;54.29;101926.56;7292453;19;152636;-51
2021/12/13 03:29:44;;;;;;;;;;;;;;;19.84;54.51;101927.41;7286517;19;153295;-52
2021/12/13 03:32:13;;;;;;;;;;;;;;;19.81;54.28;101929.91;7286017;19;152143;-51
2021/12/13 03:34:43;;;;;;;;;;;;;;;19.78;54.86;101934.13;7287515;19;153419;-51
2021/12/13 03:37:13;;;;;;;;;;;;;;;19.79;54.38;101929.38;7284316;19;154130;-51
2021/12/13 03:39:43;;;;;;;;;;;;;;;19.76;54.49;101936.38;7288487;19;152067;-51
2021/12/13 03:42:13;;;;;;;;;;;;;;;19.75;54.58;101931.06;7287056;19;153171;-51
2021/12/13 03:44:46;;;;;;;;;;;;;;;19.74;54.61;101930.22;7285151;19;152666;-51
2021/12/13 03:47:16;;;;;;;;;;;;;;;19.74;54.60;101937.78;7285396;19;151992;-51
2021/12/13 03:49:47;;;;;;;;;;;;;;;19.72;54.38;101940.84;7293581;19;153208;-52
2021/12/13 03:52:15;;;;;;;;;;;;;;;19.72;54.35;101938.06;7286162;19;152256;-51
2021/12/13 03:54:43;;;;;;;;;;;;;;;19.72;54.50;101935.25;7287476;19;152823;-51
2021/12/13 03:57:10;;;;;;;;;;;;;;;19.70;54.39;101937.50;7287467;19;153771;-52
2021/12/13 03:59:39;;;;;;;;;;;;;;;19.68;54.69;101942.53;7287103;19;151920;-52
2021/12/13 04:02:09;;;;;;;;;;;;;;;19.66;54.93;101936.38;7285985;19;152982;-51
2021/12/13 04:04:42;;;;;;;;;;;;;;;19.64;54.91;101934.97;7281942;19;154194;-51
2021/12/13 04:07:12;;;;;;;;;;;;;;;19.64;54.45;101929.34;7284884;19;151827;-51
2021/12/13 04:09:39;;;;;;;;;;;;;;;19.63;54.76;101934.13;7286924;19;153302;-51
2021/12/13 04:12:07;;;;;;;;;;;;;;;19.61;54.83;101932.72;7291083;19;152703;-52
2021/12/13 04:14:44;;;;;;;;;;;;;;;19.61;54.50;101932.72;7284811;19;152622;-50
2021/12/13 04:19:44;;;;;;;;;;;;;;;19.56;54.79;101927.09;7284697;19;152280;-50
2021/12/13 04:22:12;;;;;;;;;;;;;;;19.56;54.75;101924.31;7283754;19;152562;-51
2021/12/13 04:24:43;;;;;;;;;;;;;;;19.59;54.93;101933.00;7284409;19;155353;-51
2021/12/13 04:27:18;;;;;;;;;;;;;;;19.57;54.80;101935.25;7282399;19;151752;-51
2021/12/13 04:29:46;;;;;;;;;;;;;;;19.56;54.50;101929.91;7284760;19;153712;-52
2021/12/13 04:32:16;;;;;;;;;;;;;;;19.51;54.92;101928.78;7283714;19;153733;-52
2021/12/13 04:34:43;;;;;;;;;;;;;;;19.49;54.60;101921.75;7290567;19;152156;-51
2021/12/13 04:37:13;;;;;;;;;;;;;;;19.44;54.90;101921.78;7281652;19;153909;-51
2021/12/13 04:39:41;;;;;;;;;;;;;;;19.43;54.54;101926.53;7282526;19;152117;-51
2021/12/13 04:42:10;;;;;;;;;;;;;;;19.41;55.03;101928.72;7285081;19;153118;-51
2021/12/13 04:44:39;;;;;;;;;;;;;;;19.42;54.94;101933.22;7281087;19;154255;-51
2021/12/13 04:47:08;;;;;;;;;;;;;;;19.40;54.93;101931.78;7282411;19;151769;-50
2021/12/13 04:49:39;;;;;;;;;;;;;;;19.39;54.47;101944.16;7284366;19;152688;-51
2021/12/13 04:52:08;;;;;;;;;;;;;;;19.37;54.88;101933.19;7281085;19;153321;-51
2021/12/13 04:54:37;;;;;;;;;;;;;;;19.37;54.58;101937.97;7284152;19;152098;-51
2021/12/13 04:57:04;;;;;;;;;;;;;;;19.37;54.81;101937.97;7289676;19;151954;-51
2021/12/13 04:59:31;;;;;;;;;;;;;;;19.37;54.98;101938.81;7283238;19;152685;-51
2021/12/13 05:02:01;;;;;;;;;;;;;;;19.36;54.87;101945.53;7281290;19;153821;-51
2021/12/13 05:04:29;;;;;;;;;;;;;;;19.33;54.58;101940.47;7283064;19;153393;-51
2021/12/13 05:06:58;;;;;;;;;;;;;;;19.33;55.10;101934.03;7281593;19;151939;-52
2021/12/13 05:09:27;;;;;;;;;;;;;;;19.29;55.12;101927.28;7284459;19;152661;-52
2021/12/13 05:12:05;;;;;;;;;;;;;;;19.30;54.71;101929.84;7280802;19;153815;-51
2021/12/13 05:14:38;;;;;;;;;;;;;;;19.29;55.02;101930.09;7280470;19;152589;-51
2021/12/13 05:17:08;;;;;;;;;;;;;;;19.29;55.08;101946.91;7283766;19;153603;-52
2021/12/13 05:19:38;;;;;;;;;;;;;;;19.28;54.87;101950.81;7290342;19;153647;-51
2021/12/13 05:22:07;;;;;;;;;;;;;;;19.26;54.98;101958.69;7284192;19;152645;-52
2021/12/13 05:24:40;;;;;;;;;;;;;;;19.27;55.06;101954.75;7281844;19;153438;-51
2021/12/13 05:27:09;;;;;;;;;;;;;;;19.26;54.75;101953.91;7279731;19;152896;-52
2021/12/13 05:29:40;;;;;;;;;;;;;;;19.25;54.66;101951.38;7283999;19;153647;-51
2021/12/13 05:32:11;;;;;;;;;;;;;;;19.24;54.91;101960.91;7282623;19;153735;-52
2021/12/13 05:34:41;;;;;;;;;;;;;;;19.23;55.17;101953.59;7281003;19;152528;-52
2021/12/13 05:37:08;;;;;;;;;;;;;;;19.23;55.01;101957.25;7283481;19;152758;-52
2021/12/13 05:39:36;;;;;;;;;;;;;;;19.22;55.07;101946.31;7287118;19;152196;-51
2021/12/13 05:42:06;;;;;;;;;;;;;;;19.21;54.88;101944.66;7280897;19;152961;-51
2021/12/13 05:44:36;;;;;;;;;;;;;;;19.21;55.13;101945.50;7280796;19;153849;-51
2021/12/13 05:47:06;;;;;;;;;;;;;;;19.27;54.65;101941.56;7280852;19;152059;-51
2021/12/13 05:49:36;;;;;;;;;;;;;;;19.35;54.61;101940.22;7282670;19;152651;-52
2021/12/13 05:52:06;;;;;;;;;;;;;;;19.39;54.95;101939.38;7282051;19;153422;-51
2021/12/13 05:54:35;;;;;;;;;;;;;;;19.44;55.18;101939.41;7282558;19;152036;-51
2021/12/13 05:57:05;;;;;;;;;;;;;;;19.49;55.48;101944.19;7280100;19;151673;-51
2021/12/13 05:59:33;;;;;;;;;;;;;;;19.54;55.27;101947.00;7279307;19;153670;-51
2021/12/13 06:02:04;;;;;;;;;;;;;;;19.60;55.48;101947.84;7289683;19;152045;-51
2021/12/13 06:04:31;;;;;;;;;;;;;;;19.68;55.86;101952.91;7280083;19;154203;-51
2021/12/13 06:06:58;;;;;;;;;;;;;;;19.73;55.68;101959.38;7281259;19;152234;-51
2021/12/13 06:09:39;;;;;;;;;;;;;;;19.81;55.74;101953.19;7282669;19;152933;-52
2021/12/13 06:12:08;;;;;;;;;;;;;;;19.88;55.80;101956.59;7280533;19;152456;-51
2021/12/13 06:14:35;;;;;;;;;;;;;;;19.95;55.79;101954.34;7280742;19;152157;-51
2021/12/13 06:17:06;;;;;;;;;;;;;;;20.03;55.89;101960.53;7280992;19;151854;-51
2021/12/13 06:19:36;;;;;;;;;;;;;;;20.12;55.42;101964.44;7278295;19;154014;-51
2021/12/13 06:22:05;;;;;;;;;;;;;;;20.18;55.28;101955.72;7281347;19;152203;-50
2021/12/13 06:24:35;;;;;;;;;;;;;;;20.24;55.53;101963.03;7292166;19;153295;-52
2021/12/13 06:27:05;;;;;;;;;;;;;;;20.32;55.12;101970.91;7288605;19;152105;-51
2021/12/13 06:29:35;;;;;;;;;;;;;;;20.39;55.00;101968.69;7287785;19;153011;-52
2021/12/13 06:32:19;;;;;;;;;;;;;;;20.47;54.66;101974.81;7288121;19;153913;-51
2021/12/13 06:34:46;;;;;;;;;;;;;;;20.54;54.41;101979.00;7287271;19;152045;-51
2021/12/13 06:37:13;;;;;;;;;;;;;;;20.61;54.44;101988.00;7286515;19;152684;-51
2021/12/13 06:39:41;;;;;;;;;;;;;;;20.68;54.35;101990.50;7284481;19;154142;-51
2021/12/13 06:42:08;;;;;;;;;;;;;;;20.74;53.89;101986.56;7287744;19;152066;-51
2021/12/13 06:44:37;;;;;;;;;;;;;;;20.79;54.07;101987.41;7287191;19;151940;-51
2021/12/13 06:47:07;;;;;;;;;;;;;;;20.85;53.77;101994.66;7291656;19;153310;-51
2021/12/13 06:49:37;;;;;;;;;;;;;;;20.92;53.25;101996.34;7287743;19;153231;-51
2021/12/13 06:52:08;;;;;;;;;;;;;;;20.97;53.13;101983.13;7286667;19;154511;-51
2021/12/13 06:54:36;;;;;;;;;;;;;;;21.03;52.83;101983.97;7288445;19;152161;-52
2021/12/13 06:57:03;;;;;;;;;;;;;;;21.09;53.02;101994.88;7286263;19;153041;-51
2021/12/13 06:59:33;;;;;;;;;;;;;;;21.15;52.74;101998.56;7285076;19;152245;-51
2021/12/13 07:02:00;;;;;;;;;;;;;;;21.20;52.54;101999.38;7288300;19;152296;-51
2021/12/13 07:04:36;;;;;;;;;;;;;;;21.27;52.55;102007.47;7287812;19;153198;-52
2021/12/13 07:07:06;;;;;;;;;;;;;;;21.32;51.99;102010.28;7285094;19;153947;-51
2021/12/13 07:09:33;;;;;;;;;;;;;;;21.39;52.55;102016.44;7292348;19;151974;-51
2021/12/13 07:12:00;;;;;;;;;;;;;;;21.42;52.14;102013.03;7285532;19;153292;-51
2021/12/13 07:14:30;;;;;;;;;;;;;;;21.47;52.38;102007.41;7286485;19;151947;-52
2021/12/13 07:16:57;;;;;;;;;;;;;;;21.52;52.09;102012.16;7285989;19;153234;-52
2021/12/13 07:19:25;;;;;;;;;;;;;;;21.61;51.88;102016.88;7284858;19;155086;-51
2021/12/13 07:21:54;;;;;;;;;;;;;;;21.65;51.85;102020.81;7285946;19;152123;-52
2021/12/13 07:24:24;;;;;;;;;;;;;;;21.68;51.88;102020.22;7286267;19;153701;-51
2021/12/13 07:26:53;;;;;;;;;;;;;;;21.72;51.23;102026.94;7283499;19;153242;-52
2021/12/13 07:29:21;;;;;;;;;;;;;;;21.76;51.45;102024.38;7284379;19;152360;-51
2021/12/13 07:31:51;;;;;;;;;;;;;;;21.80;51.37;102017.06;7292449;19;151653;-52
2021/12/13 07:34:19;;;;;;;;;;;;;;;21.85;51.41;102016.19;7285521;19;151676;-51
2021/12/13 07:36:52;;;;;;;;;;;;;;;21.89;51.44;102025.72;7285067;19;151962;-52
2021/12/13 07:39:19;;;;;;;;;;;;;;;21.92;50.93;102027.94;7284743;19;154329;-52
2021/12/13 07:41:48;;;;;;;;;;;;;;;21.96;50.73;102020.63;7286789;19;152237;-52
2021/12/13 07:44:18;;;;;;;;;;;;;;;21.98;50.58;102026.81;7283564;19;152662;-51
2021/12/13 07:46:56;;;;;;;;;;;;;;;22.03;51.28;102038.03;7284829;19;152270;-53
2021/12/13 07:49:29;;;;;;;;;;;;;;;22.07;51.04;102031.53;7284841;19;152120;-52
2021/12/13 07:51:58;;;;;;;;;;;;;;;22.04;50.40;102039.69;7290557;19;152317;-51
2021/12/13 07:54:25;;;;;;;;;;;;;;;22.03;49.76;102041.66;7287100;19;151752;-52
2021/12/13 07:56:56;;;;;;;;;;;;;;;22.02;49.41;102045.63;7285090;19;153050;-51
2021/12/13 07:59:27;;;;;;;;;;;;;;;22.02;49.26;102048.47;7283305;19;153416;-52
2021/12/13 08:01:57;;;;;;;;;;;;;;;22.02;48.65;102056.06;7282893;19;152164;-52
2021/12/13 08:04:26;;;;;;;;;;;;;;;21.83;48.48;102057.81;7284954;19;152826;-52
2021/12/13 08:06:55;;;;;;;;;;;;;;;21.87;48.79;102064.56;7282390;19;153299;-52
2021/12/13 08:09:24;;;;;;;;;;;;;;;21.83;48.73;102071.91;7280293;19;152508;-52
2021/12/13 08:11:56;;;;;;;;;;;;;;;21.82;48.62;102071.03;7281668;19;153542;-52
2021/12/13 08:14:26;;;;;;;;;;;;;;;21.81;48.65;102074.13;7290802;19;152961;-52
2021/12/13 08:16:53;;;;;;;;;;;;;;;21.79;48.66;102080.06;7284331;19;152208;-52
2021/12/13 08:19:22;;;;;;;;;;;;;;;21.78;48.29;102086.81;7283583;19;153872;-52
2021/12/13 08:21:52;;;;;;;;;;;;;;;21.77;48.23;102096.41;7285261;19;151916;-52
2021/12/13 08:24:23;;;;;;;;;;;;;;;21.76;48.31;102097.50;7284703;19;153371;-52
2021/12/13 08:26:53;;;;;;;;;;;;;;;21.83;48.47;102088.78;7281135;19;153019;-52
2021/12/13 08:29:22;;;;;;;;;;;;;;;21.82;48.89;102093.56;7281627;19;151742;-52
2021/12/13 08:31:51;;;;;;;;;;;;;;;21.91;48.26;102093.78;7283345;19;152143;-52
2021/12/13 08:34:22;;;;;;;;;;;;;;;21.79;48.52;102096.13;7283372;19;154798;-52
2021/12/13 08:36:50;;;;;;;;;;;;;;;21.74;48.65;102096.97;7292597;19;152052;-52
2021/12/13 08:39:19;;;;;;;;;;;;;;;21.69;48.38;102103.47;7284016;19;152859;-52
2021/12/13 08:41:47;;;;;;;;;;;;;;;21.65;48.50;102105.19;7284495;19;152023;-53
2021/12/13 08:44:14;;;;;;;;;;;;;;;21.64;48.56;102105.47;7284200;19;153842;-53
2021/12/13 08:46:41;;;;;;;;;;;;;;;21.58;48.15;102115.88;7277189;19;154332;-53
2021/12/13 08:49:12;;;;;;;;;;;;;;;21.56;48.73;102112.53;7281250;19;152277;-52
2021/12/13 08:51:48;;;;;;;;;;;;;;;21.52;48.26;102116.19;7286449;19;152114;-52
2021/12/13 08:54:16;;;;;;;;;;;;;;;21.49;48.18;102126.03;7284090;19;153463;-52
2021/12/13 08:56:46;;;;;;;;;;;;;;;21.46;48.24;102123.81;7282818;19;152005;-52
2021/12/13 08:59:18;;;;;;;;;;;;;;;21.43;48.37;102127.19;7289899;19;152982;-52
2021/12/13 09:01:48;;;;;;;;;;;;;;;21.42;48.25;102130.28;7282748;19;152073;-53
2021/12/13 09:04:23;;;;;;;;;;;;;;;21.50;48.10;102126.88;7281183;19;152693;-53
2021/12/13 09:06:52;;;;;;;;;;;;;;;21.45;48.23;102130.56;7279048;19;154434;-51
2021/12/13 09:09:20;;;;;;;;;;;;;;;21.43;48.13;102131.97;7279212;19;151963;-51
2021/12/13 09:11:55;;;;;;;;;;;;;;;21.39;48.51;102137.34;7281953;19;153445;-51
2021/12/13 09:14:25;;;;;;;;;;;;;;;21.39;48.25;102133.69;7281884;19;154124;-51
2021/12/13 09:17:07;;;;;;;;;;;;;;;21.34;48.38;102131.72;7283205;19;152168;-52
2021/12/13 09:19:36;;;;;;;;;;;;;;;21.35;48.59;102135.38;7282999;19;153185;-51
2021/12/13 09:22:05;;;;;;;;;;;;;;;21.38;48.35;102144.09;7289498;19;153303;-52
2021/12/13 09:24:36;;;;;;;;;;;;;;;21.37;48.52;102133.13;7281855;19;153697;-50
2021/12/13 09:27:06;;;;;;;;;;;;;;;21.40;48.62;102132.53;7279604;19;154001;-51
2021/12/13 09:29:45;;;;;;;;;;;;;;;21.44;48.98;102133.66;7279755;19;152594;-51
2021/12/13 09:32:14;;;;;;;;;;;;;;;21.46;48.92;102146.31;7283150;19;153204;-51
2021/12/13 09:34:41;;;;;;;;;;;;;;;21.48;48.82;102144.06;7281092;19;152610;-51
2021/12/13 09:37:09;;;;;;;;;;;;;;;21.50;48.63;102147.41;7280625;19;152002;-51
2021/12/13 09:39:35;;;;;;;;;;;;;;;21.51;48.85;102151.91;7282494;19;151671;-51
2021/12/13 09:42:06;;;;;;;;;;;;;;;21.52;48.62;102150.78;7280245;19;153825;-51
2021/12/13 09:44:33;;;;;;;;;;;;;;;21.54;49.13;102147.69;7291823;19;152013;-50
2021/12/13 09:47:05;;;;;;;;;;;;;;;21.55;48.63;102155.84;7283425;19;153450;-51
2021/12/13 09:49:35;;;;;;;;;;;;;;;21.56;48.78;102156.69;7279136;19;152159;-51
2021/12/13 09:52:05;;;;;;;;;;;;;;;21.56;48.96;102153.88;7284612;19;152832;-51
2021/12/13 09:54:35;;;;;;;;;;;;;;;21.56;49.00;102160.34;7280804;19;153444;-51
2021/12/13 09:57:06;;;;;;;;;;;;;;;21.57;49.06;102159.22;7281257;19;151695;-51
2021/12/13 09:59:54;;;;;;;;;;;;;;;21.56;49.26;102157.53;7279604;19;154277;-51
2021/12/13 10:02:24;;;;;;;;;;;;;;;21.58;49.08;102155.25;7279013;19;154279;-51
2021/12/13 10:04:52;;;;;;;;;;;;;;;21.58;48.99;102157.22;7287276;19;151990;-51
2021/12/13 10:07:22;;;;;;;;;;;;;;;21.56;48.93;102165.97;7280387;19;153444;-51
2021/12/13 10:09:51;;;;;;;;;;;;;;;21.55;48.69;102146.56;7278844;19;152193;-51
2021/12/13 10:12:23;;;;;;;;;;;;;;;21.56;48.83;102156.69;7279296;19;153332;-51
2021/12/13 10:14:55;;;;;;;;;;;;;;;21.54;49.00;102158.94;7280930;19;153470;-51
2021/12/13 10:17:23;;;;;;;;;;;;;;;21.55;48.74;102166.25;7280131;19;152584;-51
2021/12/13 10:19:52;;;;;;;;;;;;;;;21.53;48.63;102169.31;7280467;19;152641;-51
2021/12/13 10:22:21;;;;;;;;;;;;;;;21.52;48.91;102167.66;7279916;19;154262;-51
2021/12/13 10:24:52;;;;;;;;;;;;;;;21.52;48.87;102169.63;7278408;19;151644;-51
2021/12/13 10:27:19;;;;;;;;;;;;;;;21.49;48.56;102162.59;7287341;19;153408;-51
2021/12/13 10:29:49;;;;;;;;;;;;;;;21.51;49.16;102165.97;7276588;19;152291;-51
2021/12/13 10:32:19;;;;;;;;;;;;;;;21.48;48.79;102160.94;7278162;19;152695;-51
2021/12/13 10:34:48;;;;;;;;;;;;;;;21.46;48.97;102159.53;7278511;19;154387;-51
2021/12/13 10:37:18;;;;;;;;;;;;;;;21.46;49.06;102163.19;7280414;19;151972;-51
2021/12/13 10:39:48;;;;;;;;;;;;;;;21.46;48.96;102165.16;7280590;19;153940;-51
2021/12/13 10:42:20;;;;;;;;;;;;;;;21.45;49.12;102160.63;7277030;19;152588;-50
2021/12/13 10:44:48;;;;;;;;;;;;;;;21.44;48.91;102165.41;7278496;19;152503;-50
2021/12/13 10:47:18;;;;;;;;;;;;;;;21.39;49.01;102165.47;7278794;19;152197;-50
2021/12/13 10:49:48;;;;;;;;;;;;;;;21.40;49.09;102163.47;7283090;19;154184;-50
2021/12/13 10:52:18;;;;;;;;;;;;;;;21.35;48.70;102155.88;7277492;19;151797;-50
2021/12/13 10:54:48;;;;;;;;;;;;;;;21.34;49.26;102170.25;7277471;19;154221;-51
2021/12/13 10:57:17;;;;;;;;;;;;;;;21.32;48.72;102172.47;7279161;19;152376;-51
2021/12/13 10:59:45;;;;;;;;;;;;;;;21.28;48.79;102175.03;7280038;19;152672;-51
2021/12/13 11:02:16;;;;;;;;;;;;;;;21.22;49.02;102162.94;7280043;19;152999;-50
2021/12/13 11:04:48;;;;;;;;;;;;;;;21.23;49.14;102161.81;7278989;19;151692;-50
2021/12/13 11:07:15;;;;;;;;;;;;;;;21.19;49.31;102168.28;7278619;19;153253;-50
2021/12/13 11:09:44;;;;;;;;;;;;;;;21.20;49.34;102158.75;7276460;19;154283;-51
2021/12/13 11:12:15;;;;;;;;;;;;;;;21.19;49.68;102149.47;7291390;19;152425;-51
2021/12/13 11:14:43;;;;;;;;;;;;;;;21.27;49.81;102159.28;7282811;19;153614;-50
2021/12/13 11:17:13;;;;;;;;;;;;;;;20.94;46.57;102152.25;7284509;19;152509;-52
2021/12/13 11:19:42;;;;;;;;;;;;;;;21.03;48.35;102155.38;7276029;19;152825;-52
2021/12/13 11:22:14;;;;;;;;;;;;;;;21.05;47.89;102150.28;7272278;19;153603;-51
2021/12/13 11:24:43;;;;;;;;;;;;;;;21.10;47.86;102153.94;7285462;19;152549;-52
2021/12/13 11:27:15;;;;;;;;;;;;;;;21.14;47.99;102152.28;7284130;19;152196;-52
2021/12/13 11:29:42;;;;;;;;;;;;;;;21.17;47.75;102164.91;7281506;19;154131;-52
2021/12/13 11:32:12;;;;;;;;;;;;;;;21.17;47.60;102164.91;7283903;19;151939;-52
2021/12/13 11:34:42;;;;;;;;;;;;;;;21.19;47.50;102173.91;7287779;19;153898;-52
2021/12/13 11:37:11;;;;;;;;;;;;;;;21.17;47.73;102167.72;7280082;19;152187;-52
2021/12/13 11:39:41;;;;;;;;;;;;;;;21.18;47.68;102166.59;7283178;19;153599;-51
2021/12/13 11:42:11;;;;;;;;;;;;;;;21.18;47.44;102172.22;7281264;19;153406;-52
2021/12/13 11:44:41;;;;;;;;;;;;;;;21.19;47.20;102176.72;7282317;19;152002;-51
2021/12/13 11:47:12;;;;;;;;;;;;;;;21.18;47.24;102166.59;7282808;19;152560;-52
2021/12/13 11:49:42;;;;;;;;;;;;;;;21.16;47.16;102172.53;7280754;19;153587;-52
2021/12/13 11:52:12;;;;;;;;;;;;;;;21.17;47.18;102176.16;7283575;19;151912;-52
2021/12/13 11:54:42;;;;;;;;;;;;;;;21.14;46.78;102177.56;7283455;19;152978;-53
2021/12/13 11:57:12;;;;;;;;;;;;;;;21.13;47.00;102177.84;7288901;19;152517;-52
2021/12/13 11:59:42;;;;;;;;;;;;;;;21.13;46.74;102169.41;7280592;19;152551;-52
2021/12/13 12:02:21;;;;;;;;;;;;;;;21.11;47.18;102177.28;7282428;19;153678;-53
2021/12/13 12:05:07;;;;;;;;;;;;;;;21.10;46.78;102181.19;7283232;19;152747;-52
2021/12/13 12:07:37;;;;;;;;;;;;;;;21.08;47.24;102175.00;7279971;19;153397;-53
2021/12/13 12:10:07;;;;;;;;;;;;;;;21.07;47.31;102164.91;7278511;19;154287;-52
2021/12/13 12:12:37;;;;;;;;;;;;;;;21.05;47.23;102162.38;7282693;19;152157;-52
2021/12/13 12:15:04;;;;;;;;;;;;;;;21.04;47.34;102163.50;7282980;19;153853;-52
2021/12/13 12:17:32;;;;;;;;;;;;;;;21.03;47.40;102161.81;7289381;19;153931;-53
2021/12/13 12:20:00;;;;;;;;;;;;;;;21.02;47.05;102170.53;7284173;19;152861;-53
2021/12/13 12:22:36;;;;;;;;;;;;;;;21.03;47.49;102172.22;7274153;19;153657;-53
2021/12/13 12:25:04;;;;;;;;;;;;;;;21.01;46.98;102166.03;7280202;19;152253;-53
2021/12/13 12:27:33;;;;;;;;;;;;;;;21.00;47.40;102153.94;7282386;19;153739;-52
2021/12/13 12:30:03;;;;;;;;;;;;;;;20.97;47.17;102156.47;7279416;19;154100;-52
2021/12/13 12:32:32;;;;;;;;;;;;;;;20.96;47.14;102149.19;7282324;19;152298;-53
2021/12/13 12:35:02;;;;;;;;;;;;;;;20.96;47.33;102147.22;7280566;19;152216;-53
2021/12/13 12:37:32;;;;;;;;;;;;;;;20.95;47.48;102151.13;7282088;19;153429;-53
2021/12/13 12:40:02;;;;;;;;;;;;;;;20.95;47.18;102150.28;7292317;19;151777;-53
2021/12/13 12:42:32;;;;;;;;;;;;;;;20.93;47.52;102153.41;7280935;19;154033;-53
2021/12/13 12:45:01;;;;;;;;;;;;;;;20.91;47.52;102143.56;7278277;19;152621;-52
2021/12/13 12:47:32;;;;;;;;;;;;;;;20.89;47.27;102143.00;7280103;19;152267;-53
2021/12/13 12:50:02;;;;;;;;;;;;;;;20.89;47.60;102143.84;7279411;19;153501;-54
2021/12/13 12:52:29;;;;;;;;;;;;;;;20.90;47.19;102153.09;7281497;19;152392;-54